sensor_id;sensor_type;location;lat;lon;timestamp;pressure;altitude;pressure_sealevel;temperature;humidity
57904;BME280;43720;47.462;19.030;2024-03-22T04:49:26;100595.41;;;10.90;85.01
57904;BME280;43720;47.462;19.030;2024-03-22T04:52:27;100590.19;;;10.91;86.40
57904;BME280;43720;47.462;19.030;2024-03-22T04:55:28;100591.84;;;10.85;85.88
57904;BME280;43720;47.462;19.030;2024-03-22T04:58:30;100588.16;;;10.73;86.41
57904;BME280;43720;47.462;19.030;2024-03-22T05:01:31;100595.12;;;10.73;86.80
57904;BME280;43720;47.462;19.030;2024-03-22T05:04:32;100595.09;;;10.71;87.90
57904;BME280;43720;47.462;19.030;2024-03-22T05:07:34;100602.91;;;10.70;87.18
57904;BME280;43720;47.462;19.030;2024-03-22T05:10:35;100599.34;;;10.65;88.67
57904;BME280;43720;47.462;19.030;2024-03-22T05:13:37;100597.50;;;10.61;89.18
57904;BME280;43720;47.462;19.030;2024-03-22T05:16:40;100600.25;;;10.67;90.82
57904;BME280;43720;47.462;19.030;2024-03-22T05:19:42;100603.84;;;10.73;89.51
57904;BME280;43720;47.462;19.030;2024-03-22T05:22:43;100593.34;;;10.70;89.87
57904;BME280;43720;47.462;19.030;2024-03-22T05:25:44;100598.72;;;10.80;91.38
57904;BME280;43720;47.462;19.030;2024-03-22T05:28:46;100593.47;;;10.78;91.34
57904;BME280;43720;47.462;19.030;2024-03-22T05:31:49;100594.66;;;10.97;90.62
57904;BME280;43720;47.462;19.030;2024-03-22T05:34:52;100604.38;;;11.06;91.74
57904;BME280;43720;47.462;19.030;2024-03-22T05:37:54;100607.00;;;11.07;92.34
57904;BME280;43720;47.462;19.030;2024-03-22T05:40:56;100597.53;;;11.12;90.53
57904;BME280;43720;47.462;19.030;2024-03-22T05:43:57;100597.88;;;11.35;92.21
57904;BME280;43720;47.462;19.030;2024-03-22T05:46:58;100597.06;;;11.39;89.87
57904;BME280;43720;47.462;19.030;2024-03-22T05:50:00;100586.72;;;11.48;92.05
57904;BME280;43720;47.462;19.030;2024-03-22T05:53:02;100593.75;;;11.52;90.55
57904;BME280;43720;47.462;19.030;2024-03-22T05:56:04;100599.03;;;11.56;89.43
57904;BME280;43720;47.462;19.030;2024-03-22T05:59:06;100597.50;;;11.70;88.35
57904;BME280;43720;47.462;19.030;2024-03-22T06:02:07;100595.12;;;11.88;87.72
57904;BME280;43720;47.462;19.030;2024-03-22T06:05:08;100594.28;;;11.91;87.41
57904;BME280;43720;47.462;19.030;2024-03-22T06:08:11;100598.59;;;11.86;87.84
57904;BME280;43720;47.462;19.030;2024-03-22T06:11:12;100593.59;;;12.07;87.31
57904;BME280;43720;47.462;19.030;2024-03-22T06:14:13;100587.66;;;12.22;88.26
57904;BME280;43720;47.462;19.030;2024-03-22T06:17:15;100586.03;;;12.35;85.64
57904;BME280;43720;47.462;19.030;2024-03-22T06:20:16;100596.63;;;12.42;85.76
57904;BME280;43720;47.462;19.030;2024-03-22T06:23:18;100599.22;;;12.41;86.79
57904;BME280;43720;47.462;19.030;2024-03-22T06:26:19;100595.81;;;12.48;87.35
57904;BME280;43720;47.462;19.030;2024-03-22T06:29:21;100590.66;;;12.56;86.13
57904;BME280;43720;47.462;19.030;2024-03-22T06:32:22;100590.56;;;12.48;85.80
57904;BME280;43720;47.462;19.030;2024-03-22T06:35:24;100594.09;;;12.53;85.13
57904;BME280;43720;47.462;19.030;2024-03-22T06:38:25;100596.81;;;12.59;86.73
57904;BME280;43720;47.462;19.030;2024-03-22T06:41:27;100595.09;;;12.66;86.57
57904;BME280;43720;47.462;19.030;2024-03-22T06:44:29;100596.94;;;12.76;86.29
57904;BME280;43720;47.462;19.030;2024-03-22T06:47:30;100597.06;;;12.88;84.46
57904;BME280;43720;47.462;19.030;2024-03-22T06:50:31;100591.03;;;13.00;82.61
57904;BME280;43720;47.462;19.030;2024-03-22T06:53:33;100588.50;;;13.12;84.28
57904;BME280;43720;47.462;19.030;2024-03-22T06:56:34;100593.84;;;13.23;82.95
57904;BME280;43720;47.462;19.030;2024-03-22T06:59:36;100600.03;;;13.31;79.77
57904;BME280;43720;47.462;19.030;2024-03-22T07:02:37;100607.94;;;13.34;80.32
57904;BME280;43720;47.462;19.030;2024-03-22T07:05:38;100607.13;;;13.43;79.13
57904;BME280;43720;47.462;19.030;2024-03-22T07:08:40;100604.62;;;13.63;76.69
57904;BME280;43720;47.462;19.030;2024-03-22T07:11:41;100613.37;;;13.65;77.99
57904;BME280;43720;47.462;19.030;2024-03-22T07:14:43;100613.41;;;13.69;77.50
57904;BME280;43720;47.462;19.030;2024-03-22T07:17:44;100611.69;;;13.78;77.12
57904;BME280;43720;47.462;19.030;2024-03-22T07:20:46;100610.09;;;14.07;77.80
57904;BME280;43720;47.462;19.030;2024-03-22T07:23:47;100611.03;;;14.23;74.33
57904;BME280;43720;47.462;19.030;2024-03-22T07:26:48;100604.88;;;14.23;74.35
57904;BME280;43720;47.462;19.030;2024-03-22T07:29:50;100606.63;;;14.28;74.79
57904;BME280;43720;47.462;19.030;2024-03-22T07:32:52;100598.81;;;14.47;74.94
57904;BME280;43720;47.462;19.030;2024-03-22T07:35:53;100609.38;;;14.57;74.07
57904;BME280;43720;47.462;19.030;2024-03-22T07:38:55;100606.75;;;14.57;73.13
57904;BME280;43720;47.462;19.030;2024-03-22T07:41:59;100604.09;;;14.48;73.90
57904;BME280;43720;47.462;19.030;2024-03-22T07:45:00;100611.97;;;14.45;72.81
57904;BME280;43720;47.462;19.030;2024-03-22T07:48:02;100610.25;;;14.58;72.65
57904;BME280;43720;47.462;19.030;2024-03-22T07:51:04;100619.94;;;14.68;72.89
57904;BME280;43720;47.462;19.030;2024-03-22T07:54:05;100619.03;;;14.54;72.23
57904;BME280;43720;47.462;19.030;2024-03-22T07:57:07;100618.16;;;14.56;72.04
57904;BME280;43720;47.462;19.030;2024-03-22T08:00:09;100623.44;;;14.70;70.89
57904;BME280;43720;47.462;19.030;2024-03-22T08:03:15;100624.34;;;14.72;71.04
57904;BME280;43720;47.462;19.030;2024-03-22T08:06:17;100625.22;;;14.91;70.61
57904;BME280;43720;47.462;19.030;2024-03-22T08:09:19;100629.59;;;14.98;70.41
57904;BME280;43720;47.462;19.030;2024-03-22T08:12:21;100634.00;;;15.05;70.08
57904;BME280;43720;47.462;19.030;2024-03-22T08:15:23;100635.75;;;15.05;68.95
57904;BME280;43720;47.462;19.030;2024-03-22T08:18:24;100634.91;;;15.10;68.24
57904;BME280;43720;47.462;19.030;2024-03-22T08:21:25;100640.13;;;15.13;69.41
57904;BME280;43720;47.462;19.030;2024-03-22T08:24:28;100636.63;;;15.34;68.61
57904;BME280;43720;47.462;19.030;2024-03-22T08:27:29;100635.75;;;15.19;67.70
57904;BME280;43720;47.462;19.030;2024-03-22T08:30:30;100631.38;;;15.22;68.22
57904;BME280;43720;47.462;19.030;2024-03-22T08:33:32;100629.59;;;15.27;67.69
57904;BME280;43720;47.462;19.030;2024-03-22T08:36:33;100627.81;;;15.45;65.68
57904;BME280;43720;47.462;19.030;2024-03-22T08:39:35;100627.81;;;15.71;65.17
57904;BME280;43720;47.462;19.030;2024-03-22T08:42:36;100628.66;;;15.88;64.49
57904;BME280;43720;47.462;19.030;2024-03-22T08:45:37;100625.94;;;16.05;62.74
57904;BME280;43720;47.462;19.030;2024-03-22T08:48:39;100621.47;;;16.21;61.41
57904;BME280;43720;47.462;19.030;2024-03-22T08:51:40;100622.19;;;16.49;61.41
57904;BME280;43720;47.462;19.030;2024-03-22T08:54:42;100616.66;;;16.92;60.40
57904;BME280;43720;47.462;19.030;2024-03-22T08:57:44;100617.41;;;17.07;57.86
57904;BME280;43720;47.462;19.030;2024-03-22T09:00:45;100611.31;;;17.01;57.69
57904;BME280;43720;47.462;19.030;2024-03-22T09:03:46;100608.50;;;17.21;59.67
57904;BME280;43720;47.462;19.030;2024-03-22T09:06:48;100610.94;;;17.42;57.78
57904;BME280;43720;47.462;19.030;2024-03-22T09:09:49;100612.12;;;17.09;56.29
57904;BME280;43720;47.462;19.030;2024-03-22T09:12:51;100609.41;;;17.15;57.23
57904;BME280;43720;47.462;19.030;2024-03-22T09:15:59;100609.19;;;17.43;57.32
57904;BME280;43720;47.462;19.030;2024-03-22T09:19:01;100607.09;;;17.74;56.28
57904;BME280;43720;47.462;19.030;2024-03-22T09:22:02;100611.44;;;17.81;56.99
57904;BME280;43720;47.462;19.030;2024-03-22T09:25:05;100607.91;;;17.82;55.90
57904;BME280;43720;47.462;19.030;2024-03-22T09:28:06;100601.06;;;17.63;56.56
57904;BME280;43720;47.462;19.030;2024-03-22T09:31:08;100599.06;;;17.86;54.06
57904;BME280;43720;47.462;19.030;2024-03-22T09:34:09;100596.94;;;17.32;55.53
57904;BME280;43720;47.462;19.030;2024-03-22T09:37:11;100589.87;;;17.34;55.67
57904;BME280;43720;47.462;19.030;2024-03-22T09:40:12;100583.59;;;17.45;55.77
57904;BME280;43720;47.462;19.030;2024-03-22T09:43:15;100578.06;;;17.68;56.66
57904;BME280;43720;47.462;19.030;2024-03-22T09:46:19;100579.81;;;17.69;55.30
57904;BME280;43720;47.462;19.030;2024-03-22T09:49:24;100584.84;;;17.95;55.67
57904;BME280;43720;47.462;19.030;2024-03-22T09:52:26;100580.22;;;18.11;54.27
57904;BME280;43720;47.462;19.030;2024-03-22T09:55:28;100575.59;;;18.28;54.41
57904;BME280;43720;47.462;19.030;2024-03-22T09:58:31;100576.34;;;18.34;53.64
57904;BME280;43720;47.462;19.030;2024-03-22T10:01:34;100581.53;;;18.44;54.74
57904;BME280;43720;47.462;19.030;2024-03-22T10:04:36;100575.47;;;18.34;52.75
57904;BME280;43720;47.462;19.030;2024-03-22T10:07:37;100576.16;;;17.85;55.31
57904;BME280;43720;47.462;19.030;2024-03-22T10:10:39;100569.91;;;17.91;54.16
57904;BME280;43720;47.462;19.030;2024-03-22T10:13:40;100571.12;;;17.57;55.18
57904;BME280;43720;47.462;19.030;2024-03-22T10:16:41;100559.94;;;18.09;57.03
57904;BME280;43720;47.462;19.030;2024-03-22T10:19:43;100563.22;;;18.27;54.42
57904;BME280;43720;47.462;19.030;2024-03-22T10:22:57;100561.47;;;18.26;53.83
57904;BME280;43720;47.462;19.030;2024-03-22T10:26:00;100553.53;;;18.26;54.98
57904;BME280;43720;47.462;19.030;2024-03-22T10:29:05;100560.56;;;18.28;53.74
57904;BME280;43720;47.462;19.030;2024-03-22T10:32:08;100551.81;;;18.25;53.13
57904;BME280;43720;47.462;19.030;2024-03-22T10:35:21;100554.22;;;18.39;54.10
57904;BME280;43720;47.462;19.030;2024-03-22T10:38:24;100540.03;;;18.44;53.60
57904;BME280;43720;47.462;19.030;2024-03-22T10:41:26;100548.78;;;18.49;53.91
57904;BME280;43720;47.462;19.030;2024-03-22T10:44:27;100543.47;;;18.51;53.92
57904;BME280;43720;47.462;19.030;2024-03-22T10:47:30;100544.84;;;18.76;52.63
57904;BME280;43720;47.462;19.030;2024-03-22T10:50:32;100546.59;;;18.79;50.75
57904;BME280;43720;47.462;19.030;2024-03-22T10:53:35;100537.81;;;18.74;50.81
57904;BME280;43720;47.462;19.030;2024-03-22T10:56:37;100545.59;;;18.86;51.29
57904;BME280;43720;47.462;19.030;2024-03-22T10:59:41;100546.22;;;19.00;51.46
57904;BME280;43720;47.462;19.030;2024-03-22T11:02:45;100538.25;;;19.02;48.02
57904;BME280;43720;47.462;19.030;2024-03-22T11:05:47;100532.19;;;18.95;46.88
57904;BME280;43720;47.462;19.030;2024-03-22T11:08:50;100537.94;;;18.65;49.47
57904;BME280;43720;47.462;19.030;2024-03-22T11:11:53;100537.44;;;18.41;47.66
57904;BME280;43720;47.462;19.030;2024-03-22T11:14:55;100537.34;;;18.47;49.61
57904;BME280;43720;47.462;19.030;2024-03-22T11:17:57;100528.97;;;18.76;50.01
57904;BME280;43720;47.462;19.030;2024-03-22T11:21:00;100525.97;;;18.96;47.26
57904;BME280;43720;47.462;19.030;2024-03-22T11:24:02;100534.88;;;18.92;44.62
57904;BME280;43720;47.462;19.030;2024-03-22T11:27:03;100528.28;;;18.64;44.83
57904;BME280;43720;47.462;19.030;2024-03-22T11:30:05;100520.19;;;18.70;43.71
57904;BME280;43720;47.462;19.030;2024-03-22T11:33:07;100522.94;;;18.65;43.95
57904;BME280;43720;47.462;19.030;2024-03-22T11:36:13;100517.06;;;18.46;43.90
57904;BME280;43720;47.462;19.030;2024-03-22T11:39:14;100521.16;;;18.66;43.66
57904;BME280;43720;47.462;19.030;2024-03-22T11:42:17;100512.47;;;18.57;43.67
57904;BME280;43720;47.462;19.030;2024-03-22T11:45:19;100506.22;;;18.63;41.79
57904;BME280;43720;47.462;19.030;2024-03-22T11:48:21;100504.69;;;18.47;40.58
57904;BME280;43720;47.462;19.030;2024-03-22T11:51:23;100499.62;;;18.33;42.04
57904;BME280;43720;47.462;19.030;2024-03-22T11:54:25;100503.91;;;18.42;42.76
57904;BME280;43720;47.462;19.030;2024-03-22T11:57:28;100495.50;;;18.69;42.13
57904;BME280;43720;47.462;19.030;2024-03-22T12:00:29;100497.31;;;19.18;41.51
57904;BME280;43720;47.462;19.030;2024-03-22T12:03:31;100494.25;;;18.92;41.07
57904;BME280;43720;47.462;19.030;2024-03-22T12:06:34;100495.75;;;19.06;39.87
57904;BME280;43720;47.462;19.030;2024-03-22T12:09:36;100491.75;;;18.84;41.09
57904;BME280;43720;47.462;19.030;2024-03-22T12:12:37;100481.25;;;18.79;43.15
57904;BME280;43720;47.462;19.030;2024-03-22T12:15:39;100474.13;;;18.83;41.95
57904;BME280;43720;47.462;19.030;2024-03-22T12:18:40;100472.25;;;18.88;43.18
57904;BME280;43720;47.462;19.030;2024-03-22T12:21:42;100475.25;;;18.67;44.08
57904;BME280;43720;47.462;19.030;2024-03-22T12:24:43;100471.72;;;18.66;43.68
57904;BME280;43720;47.462;19.030;2024-03-22T12:27:46;100481.09;;;18.87;44.73
57904;BME280;43720;47.462;19.030;2024-03-22T12:30:51;100475.13;;;18.19;44.00
57904;BME280;43720;47.462;19.030;2024-03-22T12:33:53;100462.03;;;18.11;44.95
57904;BME280;43720;47.462;19.030;2024-03-22T12:36:54;100464.22;;;18.40;45.65
57904;BME280;43720;47.462;19.030;2024-03-22T12:39:56;100461.50;;;18.45;45.79
57904;BME280;43720;47.462;19.030;2024-03-22T12:42:57;100461.94;;;18.70;45.43
57904;BME280;43720;47.462;19.030;2024-03-22T12:45:59;100463.63;;;18.77;45.03
57904;BME280;43720;47.462;19.030;2024-03-22T12:49:01;100456.12;;;19.02;45.43
57904;BME280;43720;47.462;19.030;2024-03-22T12:52:02;100450.56;;;19.14;44.63
57904;BME280;43720;47.462;19.030;2024-03-22T12:55:04;100440.59;;;19.27;43.68
57904;BME280;43720;47.462;19.030;2024-03-22T12:58:05;100447.06;;;19.14;42.79
57904;BME280;43720;47.462;19.030;2024-03-22T13:01:08;100446.31;;;18.54;44.38
57904;BME280;43720;47.462;19.030;2024-03-22T13:04:10;100432.56;;;18.34;45.13
57904;BME280;43720;47.462;19.030;2024-03-22T13:07:11;100429.72;;;18.45;45.16
57904;BME280;43720;47.462;19.030;2024-03-22T13:10:13;100422.97;;;18.27;44.64
57904;BME280;43720;47.462;19.030;2024-03-22T13:13:14;100422.66;;;18.45;44.43
57904;BME280;43720;47.462;19.030;2024-03-22T13:16:17;100421.28;;;18.74;44.15
57904;BME280;43720;47.462;19.030;2024-03-22T13:19:19;100417.38;;;18.95;43.89
57904;BME280;43720;47.462;19.030;2024-03-22T13:22:20;100410.13;;;19.04;43.98
57904;BME280;43720;47.462;19.030;2024-03-22T13:25:22;100397.56;;;19.13;44.53
57904;BME280;43720;47.462;19.030;2024-03-22T13:28:24;100409.16;;;18.61;45.26
57904;BME280;43720;47.462;19.030;2024-03-22T13:31:25;100401.06;;;18.71;45.78
57904;BME280;43720;47.462;19.030;2024-03-22T13:34:27;100399.19;;;18.76;45.25
57904;BME280;43720;47.462;19.030;2024-03-22T13:37:28;100392.16;;;18.75;45.38
57904;BME280;43720;47.462;19.030;2024-03-22T13:40:29;100391.66;;;18.50;46.24
57904;BME280;43720;47.462;19.030;2024-03-22T13:43:30;100385.81;;;18.33;46.19
57904;BME280;43720;47.462;19.030;2024-03-22T13:46:32;100384.62;;;18.49;47.52
57904;BME280;43720;47.462;19.030;2024-03-22T13:49:33;100381.53;;;18.26;47.80
57904;BME280;43720;47.462;19.030;2024-03-22T13:52:35;100375.06;;;18.44;46.89
57904;BME280;43720;47.462;19.030;2024-03-22T13:55:36;100371.78;;;18.79;45.67
57904;BME280;43720;47.462;19.030;2024-03-22T13:58:38;100365.72;;;18.69;45.11
57904;BME280;43720;47.462;19.030;2024-03-22T14:01:39;100366.28;;;18.90;44.13
57904;BME280;43720;47.462;19.030;2024-03-22T14:04:43;100364.91;;;18.66;42.91
57904;BME280;43720;47.462;19.030;2024-03-22T14:07:44;100358.31;;;18.90;42.56
57904;BME280;43720;47.462;19.030;2024-03-22T14:10:45;100358.78;;;19.10;42.77
57904;BME280;43720;47.462;19.030;2024-03-22T14:13:47;100353.59;;;19.05;42.94
57904;BME280;43720;47.462;19.030;2024-03-22T14:16:49;100352.31;;;19.23;43.45
57904;BME280;43720;47.462;19.030;2024-03-22T14:19:50;100353.59;;;19.04;43.58
57904;BME280;43720;47.462;19.030;2024-03-22T14:22:53;100347.81;;;19.27;42.16
57904;BME280;43720;47.462;19.030;2024-03-22T14:25:55;100340.03;;;19.19;42.79
57904;BME280;43720;47.462;19.030;2024-03-22T14:28:56;100339.75;;;19.33;42.79
57904;BME280;43720;47.462;19.030;2024-03-22T14:31:58;100331.91;;;19.28;41.99
57904;BME280;43720;47.462;19.030;2024-03-22T14:34:59;100330.47;;;18.67;42.59
57904;BME280;43720;47.462;19.030;2024-03-22T14:38:01;100330.44;;;18.69;43.08
57904;BME280;43720;47.462;19.030;2024-03-22T14:41:02;100327.12;;;18.57;43.17
57904;BME280;43720;47.462;19.030;2024-03-22T14:44:04;100322.78;;;18.53;42.97
57904;BME280;43720;47.462;19.030;2024-03-22T14:47:05;100322.13;;;18.89;42.16
57904;BME280;43720;47.462;19.030;2024-03-22T14:50:07;100312.69;;;18.74;41.25
57904;BME280;43720;47.462;19.030;2024-03-22T14:53:09;100307.72;;;18.58;41.82
57904;BME280;43720;47.462;19.030;2024-03-22T14:56:11;100315.84;;;18.48;42.43
57904;BME280;43720;47.462;19.030;2024-03-22T14:59:14;100310.28;;;18.14;41.81
57904;BME280;43720;47.462;19.030;2024-03-22T15:02:15;100310.16;;;18.20;42.62
57904;BME280;43720;47.462;19.030;2024-03-22T15:05:17;100299.59;;;18.20;41.88
57904;BME280;43720;47.462;19.030;2024-03-22T15:08:19;100315.69;;;18.07;41.32
57904;BME280;43720;47.462;19.030;2024-03-22T15:11:21;100312.47;;;17.89;39.43
57904;BME280;43720;47.462;19.030;2024-03-22T15:14:22;100316.19;;;17.78;39.02
57904;BME280;43720;47.462;19.030;2024-03-22T15:17:24;100308.34;;;17.71;39.24
57904;BME280;43720;47.462;19.030;2024-03-22T15:20:25;100306.66;;;17.65;40.77
57904;BME280;43720;47.462;19.030;2024-03-22T15:23:28;100311.22;;;17.55;39.94
57904;BME280;43720;47.462;19.030;2024-03-22T15:26:31;100302.63;;;17.41;40.43
57904;BME280;43720;47.462;19.030;2024-03-22T15:29:33;100300.06;;;17.35;40.92
57904;BME280;43720;47.462;19.030;2024-03-22T15:32:34;100300.66;;;17.54;40.42
57904;BME280;43720;47.462;19.030;2024-03-22T15:35:36;100295.50;;;17.45;40.86
57904;BME280;43720;47.462;19.030;2024-03-22T15:38:37;100300.56;;;17.60;41.15
57904;BME280;43720;47.462;19.030;2024-03-22T15:41:39;100295.44;;;17.49;41.60
57904;BME280;43720;47.462;19.030;2024-03-22T15:44:40;100303.25;;;17.57;41.72
57904;BME280;43720;47.462;19.030;2024-03-22T15:47:43;100297.41;;;17.36;41.63
57904;BME280;43720;47.462;19.030;2024-03-22T15:50:44;100290.22;;;17.46;42.40
57904;BME280;43720;47.462;19.030;2024-03-22T15:53:47;100293.84;;;17.39;40.64
57904;BME280;43720;47.462;19.030;2024-03-22T15:56:48;100291.56;;;17.13;40.60
57904;BME280;43720;47.462;19.030;2024-03-22T15:59:50;100292.69;;;16.97;40.84
57904;BME280;43720;47.462;19.030;2024-03-22T16:02:51;100283.06;;;16.91;40.26
57904;BME280;43720;47.462;19.030;2024-03-22T16:05:52;100293.81;;;16.76;40.41
57904;BME280;43720;47.462;19.030;2024-03-22T16:08:54;100286.00;;;16.65;40.52
